Weather at Annaba Rabah Bitat Airport

Public forecast

Using degrees Celsius for public forecast. Weather courtesy of forecast.io.

Current aviation weather report (METAR) for Annaba Rabah Bitat Airport

Report is more than 6 hours old.

2022/11/14 15:30 (retrieved 2 years ago)

DABB 141530Z 04010KT 9999 FEW023 SCT200 22/14 Q1019

Aviation forecast (TAF) for Annaba Rabah Bitat Airport

Forecast is more than 12 hours old.

2023/02/22 18:00 (retrieved 1 year ago)

TAF DABB 221700Z 2218/2318 06006KT 8000 FEW023 PROB30 2218/2224 FEW026TCU PROB30 TEMPO 2220/2307 2000 BR SCT008